sensor_id;sensor_type;location;lat;lon;timestamp;temperature;humidity
24158;DHT22;12316;50.904;4.200;2023-03-01T00:01:31;3.00;98.70
24158;DHT22;12316;50.904;4.200;2023-03-01T00:03:58;2.90;98.80
24158;DHT22;12316;50.904;4.200;2023-03-01T00:06:24;2.90;98.90
24158;DHT22;12316;50.904;4.200;2023-03-01T00:08:50;2.90;98.90
24158;DHT22;12316;50.904;4.200;2023-03-01T00:11:30;2.80;98.90
24158;DHT22;12316;50.904;4.200;2023-03-01T00:13:58;2.90;99.00
24158;DHT22;12316;50.904;4.200;2023-03-01T00:16:26;2.90;99.00
24158;DHT22;12316;50.904;4.200;2023-03-01T00:18:54;2.90;99.00
24158;DHT22;12316;50.904;4.200;2023-03-01T00:21:21;2.80;99.00
24158;DHT22;12316;50.904;4.200;2023-03-01T00:23:48;2.80;99.10
24158;DHT22;12316;50.904;4.200;2023-03-01T00:26:15;2.80;99.00
24158;DHT22;12316;50.904;4.200;2023-03-01T00:28:41;2.80;99.10
24158;DHT22;12316;50.904;4.200;2023-03-01T00:31:10;2.70;99.20
24158;DHT22;12316;50.904;4.200;2023-03-01T00:33:38;2.70;99.30
24158;DHT22;12316;50.904;4.200;2023-03-01T00:36:04;2.70;99.30
24158;DHT22;12316;50.904;4.200;2023-03-01T00:38:30;2.70;99.30
24158;DHT22;12316;50.904;4.200;2023-03-01T00:40:56;2.70;99.40
24158;DHT22;12316;50.904;4.200;2023-03-01T00:43:27;2.70;99.40
24158;DHT22;12316;50.904;4.200;2023-03-01T00:45:53;2.70;99.30
24158;DHT22;12316;50.904;4.200;2023-03-01T00:48:19;2.70;99.40
24158;DHT22;12316;50.904;4.200;2023-03-01T00:50:45;2.60;99.50
24158;DHT22;12316;50.904;4.200;2023-03-01T00:53:11;2.60;99.50
24158;DHT22;12316;50.904;4.200;2023-03-01T00:55:36;2.60;99.50
24158;DHT22;12316;50.904;4.200;2023-03-01T00:58:02;2.60;99.60
24158;DHT22;12316;50.904;4.200;2023-03-01T01:00:27;2.60;99.60
24158;DHT22;12316;50.904;4.200;2023-03-01T01:02:53;2.60;99.70
24158;DHT22;12316;50.904;4.200;2023-03-01T01:05:19;2.60;99.70
24158;DHT22;12316;50.904;4.200;2023-03-01T01:07:46;2.60;99.80
24158;DHT22;12316;50.904;4.200;2023-03-01T01:10:12;2.60;99.80
24158;DHT22;12316;50.904;4.200;2023-03-01T01:12:43;2.60;99.80
24158;DHT22;12316;50.904;4.200;2023-03-01T01:15:09;2.60;99.90
24158;DHT22;12316;50.904;4.200;2023-03-01T01:17:37;2.60;99.90
24158;DHT22;12316;50.904;4.200;2023-03-01T01:20:03;2.50;99.90
24158;DHT22;12316;50.904;4.200;2023-03-01T01:22:29;2.50;99.90
24158;DHT22;12316;50.904;4.200;2023-03-01T01:24:54;2.50;99.90
24158;DHT22;12316;50.904;4.200;2023-03-01T01:27:20;2.40;99.90
24158;DHT22;12316;50.904;4.200;2023-03-01T01:29:46;2.40;99.90
24158;DHT22;12316;50.904;4.200;2023-03-01T01:32:11;2.40;99.90
24158;DHT22;12316;50.904;4.200;2023-03-01T01:34:37;2.40;99.90
24158;DHT22;12316;50.904;4.200;2023-03-01T01:37:02;2.40;99.90
24158;DHT22;12316;50.904;4.200;2023-03-01T01:39:28;2.40;99.90
24158;DHT22;12316;50.904;4.200;2023-03-01T01:41:54;2.30;99.90
24158;DHT22;12316;50.904;4.200;2023-03-01T01:44:26;2.30;99.90
24158;DHT22;12316;50.904;4.200;2023-03-01T01:46:58;2.30;99.90
24158;DHT22;12316;50.904;4.200;2023-03-01T01:49:40;2.30;99.90
24158;DHT22;12316;50.904;4.200;2023-03-01T01:54:40;2.30;99.90
24158;DHT22;12316;50.904;4.200;2023-03-01T01:57:11;2.30;99.90
24158;DHT22;12316;50.904;4.200;2023-03-01T01:59:38;2.20;99.90
24158;DHT22;12316;50.904;4.200;2023-03-01T02:02:04;2.20;99.90
24158;DHT22;12316;50.904;4.200;2023-03-01T02:04:31;2.20;99.90
24158;DHT22;12316;50.904;4.200;2023-03-01T02:07:10;2.20;99.90
24158;DHT22;12316;50.904;4.200;2023-03-01T02:09:39;2.20;99.90
24158;DHT22;12316;50.904;4.200;2023-03-01T02:12:06;2.20;99.90
24158;DHT22;12316;50.904;4.200;2023-03-01T02:14:32;2.20;99.90
24158;DHT22;12316;50.904;4.200;2023-03-01T02:16:57;2.20;99.90
24158;DHT22;12316;50.904;4.200;2023-03-01T02:19:39;2.10;99.90
24158;DHT22;12316;50.904;4.200;2023-03-01T02:22:30;2.10;99.90
24158;DHT22;12316;50.904;4.200;2023-03-01T02:30:35;2.00;99.90
24158;DHT22;12316;50.904;4.200;2023-03-01T02:33:03;2.00;99.90
24158;DHT22;12316;50.904;4.200;2023-03-01T02:35:35;2.00;99.90
24158;DHT22;12316;50.904;4.200;2023-03-01T02:38:03;2.00;99.90
24158;DHT22;12316;50.904;4.200;2023-03-01T02:40:31;2.00;99.90
24158;DHT22;12316;50.904;4.200;2023-03-01T02:42:59;2.00;99.90
24158;DHT22;12316;50.904;4.200;2023-03-01T02:45:26;1.90;99.90
24158;DHT22;12316;50.904;4.200;2023-03-01T02:47:56;2.00;99.90
24158;DHT22;12316;50.904;4.200;2023-03-01T02:53:11;1.90;99.90
24158;DHT22;12316;50.904;4.200;2023-03-01T02:55:38;1.90;99.90
24158;DHT22;12316;50.904;4.200;2023-03-01T02:58:04;1.90;99.90
24158;DHT22;12316;50.904;4.200;2023-03-01T03:00:41;1.80;99.90
24158;DHT22;12316;50.904;4.200;2023-03-01T03:03:13;1.90;99.90
24158;DHT22;12316;50.904;4.200;2023-03-01T03:05:39;1.90;99.90
24158;DHT22;12316;50.904;4.200;2023-03-01T03:08:05;1.90;99.90
24158;DHT22;12316;50.904;4.200;2023-03-01T03:10:35;1.90;99.90
24158;DHT22;12316;50.904;4.200;2023-03-01T03:13:04;1.90;99.90
24158;DHT22;12316;50.904;4.200;2023-03-01T03:15:30;1.80;99.90
24158;DHT22;12316;50.904;4.200;2023-03-01T03:17:58;1.80;99.90
24158;DHT22;12316;50.904;4.200;2023-03-01T03:20:26;1.70;99.90
24158;DHT22;12316;50.904;4.200;2023-03-01T03:22:54;1.70;99.90
24158;DHT22;12316;50.904;4.200;2023-03-01T03:25:20;1.70;99.90
24158;DHT22;12316;50.904;4.200;2023-03-01T03:27:48;1.70;99.90
24158;DHT22;12316;50.904;4.200;2023-03-01T03:30:17;1.70;99.90
24158;DHT22;12316;50.904;4.200;2023-03-01T03:32:45;1.70;99.90
24158;DHT22;12316;50.904;4.200;2023-03-01T03:35:24;1.70;99.90
24158;DHT22;12316;50.904;4.200;2023-03-01T03:37:50;1.70;99.90
24158;DHT22;12316;50.904;4.200;2023-03-01T03:42:57;1.60;99.90
24158;DHT22;12316;50.904;4.200;2023-03-01T03:45:23;1.60;99.90
24158;DHT22;12316;50.904;4.200;2023-03-01T03:47:49;1.60;99.90
24158;DHT22;12316;50.904;4.200;2023-03-01T03:50:16;1.50;99.90
24158;DHT22;12316;50.904;4.200;2023-03-01T03:52:42;1.50;99.90
24158;DHT22;12316;50.904;4.200;2023-03-01T03:55:10;1.50;99.90
24158;DHT22;12316;50.904;4.200;2023-03-01T03:57:40;1.40;99.90
24158;DHT22;12316;50.904;4.200;2023-03-01T04:00:08;1.40;99.90
24158;DHT22;12316;50.904;4.200;2023-03-01T04:02:41;1.40;99.90
24158;DHT22;12316;50.904;4.200;2023-03-01T04:05:09;1.30;99.90
24158;DHT22;12316;50.904;4.200;2023-03-01T04:07:35;1.40;99.90
24158;DHT22;12316;50.904;4.200;2023-03-01T04:10:05;1.40;99.90
24158;DHT22;12316;50.904;4.200;2023-03-01T04:12:33;1.30;99.90
24158;DHT22;12316;50.904;4.200;2023-03-01T04:15:00;1.30;99.90
24158;DHT22;12316;50.904;4.200;2023-03-01T04:17:26;1.30;99.90
24158;DHT22;12316;50.904;4.200;2023-03-01T04:19:51;1.30;99.90
24158;DHT22;12316;50.904;4.200;2023-03-01T04:22:17;1.20;99.90
24158;DHT22;12316;50.904;4.200;2023-03-01T04:24:44;1.20;99.90
24158;DHT22;12316;50.904;4.200;2023-03-01T04:27:10;1.20;99.90
24158;DHT22;12316;50.904;4.200;2023-03-01T04:29:36;1.20;99.90
24158;DHT22;12316;50.904;4.200;2023-03-01T04:32:02;1.20;99.90
24158;DHT22;12316;50.904;4.200;2023-03-01T04:34:28;1.20;99.90
24158;DHT22;12316;50.904;4.200;2023-03-01T04:36:54;1.20;99.90
24158;DHT22;12316;50.904;4.200;2023-03-01T04:39:20;1.20;99.90
24158;DHT22;12316;50.904;4.200;2023-03-01T04:41:46;1.20;99.90
24158;DHT22;12316;50.904;4.200;2023-03-01T04:44:12;1.20;99.90
24158;DHT22;12316;50.904;4.200;2023-03-01T04:46:38;1.20;99.90
24158;DHT22;12316;50.904;4.200;2023-03-01T04:49:04;1.20;99.90
24158;DHT22;12316;50.904;4.200;2023-03-01T04:51:30;1.10;99.90
24158;DHT22;12316;50.904;4.200;2023-03-01T04:53:58;1.10;99.90
24158;DHT22;12316;50.904;4.200;2023-03-01T04:56:23;1.20;99.90
24158;DHT22;12316;50.904;4.200;2023-03-01T04:58:49;1.10;99.90
24158;DHT22;12316;50.904;4.200;2023-03-01T05:01:18;1.10;99.90
24158;DHT22;12316;50.904;4.200;2023-03-01T05:03:49;1.10;99.90
24158;DHT22;12316;50.904;4.200;2023-03-01T05:06:16;1.00;99.90
24158;DHT22;12316;50.904;4.200;2023-03-01T05:08:42;1.10;99.90
24158;DHT22;12316;50.904;4.200;2023-03-01T05:11:09;1.10;99.90
24158;DHT22;12316;50.904;4.200;2023-03-01T05:13:36;1.00;99.90
24158;DHT22;12316;50.904;4.200;2023-03-01T05:16:04;1.00;99.90
24158;DHT22;12316;50.904;4.200;2023-03-01T05:18:32;1.00;99.90
24158;DHT22;12316;50.904;4.200;2023-03-01T05:21:10;1.00;99.90
24158;DHT22;12316;50.904;4.200;2023-03-01T05:23:36;1.00;99.90
24158;DHT22;12316;50.904;4.200;2023-03-01T05:26:03;1.00;99.90
24158;DHT22;12316;50.904;4.200;2023-03-01T05:28:30;1.00;99.90
24158;DHT22;12316;50.904;4.200;2023-03-01T05:30:56;1.00;99.90
24158;DHT22;12316;50.904;4.200;2023-03-01T05:33:22;1.00;99.90
24158;DHT22;12316;50.904;4.200;2023-03-01T05:35:48;1.00;99.90
24158;DHT22;12316;50.904;4.200;2023-03-01T05:38:15;0.90;99.90
24158;DHT22;12316;50.904;4.200;2023-03-01T05:40:42;0.90;99.90
24158;DHT22;12316;50.904;4.200;2023-03-01T05:43:09;0.90;99.90
24158;DHT22;12316;50.904;4.200;2023-03-01T05:45:36;1.00;99.90
24158;DHT22;12316;50.904;4.200;2023-03-01T05:48:03;0.90;99.90
24158;DHT22;12316;50.904;4.200;2023-03-01T05:50:33;0.90;99.90
24158;DHT22;12316;50.904;4.200;2023-03-01T05:53:01;0.90;99.90
24158;DHT22;12316;50.904;4.200;2023-03-01T05:55:29;0.90;99.90
24158;DHT22;12316;50.904;4.200;2023-03-01T05:57:55;0.80;99.90
24158;DHT22;12316;50.904;4.200;2023-03-01T06:00:21;0.80;99.90
24158;DHT22;12316;50.904;4.200;2023-03-01T06:02:50;0.80;99.90
24158;DHT22;12316;50.904;4.200;2023-03-01T06:05:17;0.90;99.90
24158;DHT22;12316;50.904;4.200;2023-03-01T06:07:43;0.80;99.90
24158;DHT22;12316;50.904;4.200;2023-03-01T06:10:10;0.80;99.90
24158;DHT22;12316;50.904;4.200;2023-03-01T06:12:37;0.80;99.90
24158;DHT22;12316;50.904;4.200;2023-03-01T06:15:05;0.70;99.90
24158;DHT22;12316;50.904;4.200;2023-03-01T06:17:32;0.70;99.90
24158;DHT22;12316;50.904;4.200;2023-03-01T06:20:00;0.60;99.90
24158;DHT22;12316;50.904;4.200;2023-03-01T06:22:27;0.70;99.90
24158;DHT22;12316;50.904;4.200;2023-03-01T06:24:52;0.70;99.90
24158;DHT22;12316;50.904;4.200;2023-03-01T06:27:18;0.80;99.90
24158;DHT22;12316;50.904;4.200;2023-03-01T06:29:43;0.70;99.90
24158;DHT22;12316;50.904;4.200;2023-03-01T06:32:09;0.60;99.90
24158;DHT22;12316;50.904;4.200;2023-03-01T06:34:35;0.60;99.90
24158;DHT22;12316;50.904;4.200;2023-03-01T06:37:01;0.70;99.90
24158;DHT22;12316;50.904;4.200;2023-03-01T06:39:31;0.70;99.90
24158;DHT22;12316;50.904;4.200;2023-03-01T06:41:56;0.70;99.90
24158;DHT22;12316;50.904;4.200;2023-03-01T06:44:23;0.70;99.90
24158;DHT22;12316;50.904;4.200;2023-03-01T06:46:49;0.70;99.90
24158;DHT22;12316;50.904;4.200;2023-03-01T06:49:15;0.60;99.90
24158;DHT22;12316;50.904;4.200;2023-03-01T06:51:43;0.60;99.90
24158;DHT22;12316;50.904;4.200;2023-03-01T06:54:09;0.70;99.90
24158;DHT22;12316;50.904;4.200;2023-03-01T06:56:35;0.70;99.90
24158;DHT22;12316;50.904;4.200;2023-03-01T06:59:00;0.70;99.90
24158;DHT22;12316;50.904;4.200;2023-03-01T07:01:28;0.70;99.90
24158;DHT22;12316;50.904;4.200;2023-03-01T07:03:54;0.80;99.90
24158;DHT22;12316;50.904;4.200;2023-03-01T07:06:20;0.90;99.90
24158;DHT22;12316;50.904;4.200;2023-03-01T07:08:45;0.90;99.90
24158;DHT22;12316;50.904;4.200;2023-03-01T07:11:11;0.80;99.90
24158;DHT22;12316;50.904;4.200;2023-03-01T07:13:37;0.90;99.90
24158;DHT22;12316;50.904;4.200;2023-03-01T07:16:02;0.90;99.90
24158;DHT22;12316;50.904;4.200;2023-03-01T07:18:28;1.10;99.90
24158;DHT22;12316;50.904;4.200;2023-03-01T07:20:54;1.10;99.90
24158;DHT22;12316;50.904;4.200;2023-03-01T07:23:19;1.00;99.90
24158;DHT22;12316;50.904;4.200;2023-03-01T07:25:51;1.10;99.90
24158;DHT22;12316;50.904;4.200;2023-03-01T07:28:17;1.10;99.90
24158;DHT22;12316;50.904;4.200;2023-03-01T07:30:43;1.10;99.90
24158;DHT22;12316;50.904;4.200;2023-03-01T07:33:08;1.20;99.90
24158;DHT22;12316;50.904;4.200;2023-03-01T07:35:34;1.20;99.90
24158;DHT22;12316;50.904;4.200;2023-03-01T07:37:59;1.20;99.90
24158;DHT22;12316;50.904;4.200;2023-03-01T07:40:25;1.20;99.90
24158;DHT22;12316;50.904;4.200;2023-03-01T07:42:58;1.30;99.90
24158;DHT22;12316;50.904;4.200;2023-03-01T07:45:24;1.30;99.90
24158;DHT22;12316;50.904;4.200;2023-03-01T07:47:51;1.10;99.90
24158;DHT22;12316;50.904;4.200;2023-03-01T07:50:17;1.20;99.90
24158;DHT22;12316;50.904;4.200;2023-03-01T07:52:46;1.20;99.90
24158;DHT22;12316;50.904;4.200;2023-03-01T07:55:12;1.30;99.90
24158;DHT22;12316;50.904;4.200;2023-03-01T07:57:38;1.40;99.90
24158;DHT22;12316;50.904;4.200;2023-03-01T08:00:04;1.40;99.90
24158;DHT22;12316;50.904;4.200;2023-03-01T08:02:31;1.20;99.90
24158;DHT22;12316;50.904;4.200;2023-03-01T08:04:56;1.40;99.90
24158;DHT22;12316;50.904;4.200;2023-03-01T08:07:22;1.30;99.90
24158;DHT22;12316;50.904;4.200;2023-03-01T08:09:47;1.40;99.90
24158;DHT22;12316;50.904;4.200;2023-03-01T08:12:13;1.60;99.90
24158;DHT22;12316;50.904;4.200;2023-03-01T08:14:39;1.70;99.90
24158;DHT22;12316;50.904;4.200;2023-03-01T08:17:04;1.80;99.90
24158;DHT22;12316;50.904;4.200;2023-03-01T08:19:30;1.80;99.90
24158;DHT22;12316;50.904;4.200;2023-03-01T08:21:56;1.90;99.90
24158;DHT22;12316;50.904;4.200;2023-03-01T08:24:23;1.80;99.90
24158;DHT22;12316;50.904;4.200;2023-03-01T08:26:49;1.80;99.90
24158;DHT22;12316;50.904;4.200;2023-03-01T08:29:15;1.90;99.90
24158;DHT22;12316;50.904;4.200;2023-03-01T08:31:40;1.80;99.90
24158;DHT22;12316;50.904;4.200;2023-03-01T08:34:12;1.80;99.90
24158;DHT22;12316;50.904;4.200;2023-03-01T08:36:40;1.90;99.90
24158;DHT22;12316;50.904;4.200;2023-03-01T08:39:08;1.90;99.90
24158;DHT22;12316;50.904;4.200;2023-03-01T08:41:35;1.80;99.90
24158;DHT22;12316;50.904;4.200;2023-03-01T08:44:00;1.80;99.90
24158;DHT22;12316;50.904;4.200;2023-03-01T08:46:31;1.90;99.90
24158;DHT22;12316;50.904;4.200;2023-03-01T08:48:57;1.90;99.90
24158;DHT22;12316;50.904;4.200;2023-03-01T08:51:24;2.20;99.90
24158;DHT22;12316;50.904;4.200;2023-03-01T08:53:50;2.30;99.90
24158;DHT22;12316;50.904;4.200;2023-03-01T08:56:16;2.40;99.90
24158;DHT22;12316;50.904;4.200;2023-03-01T08:58:48;2.40;99.90
24158;DHT22;12316;50.904;4.200;2023-03-01T09:01:17;2.50;99.90
24158;DHT22;12316;50.904;4.200;2023-03-01T09:03:43;2.50;99.90
24158;DHT22;12316;50.904;4.200;2023-03-01T09:06:10;2.50;99.90
24158;DHT22;12316;50.904;4.200;2023-03-01T09:08:40;2.50;99.90
24158;DHT22;12316;50.904;4.200;2023-03-01T09:11:08;2.60;99.90
24158;DHT22;12316;50.904;4.200;2023-03-01T09:13:34;2.60;99.90
24158;DHT22;12316;50.904;4.200;2023-03-01T09:16:02;2.60;99.90
24158;DHT22;12316;50.904;4.200;2023-03-01T09:18:28;2.70;99.90
24158;DHT22;12316;50.904;4.200;2023-03-01T09:21:04;2.70;99.90
24158;DHT22;12316;50.904;4.200;2023-03-01T09:23:36;2.70;99.90
24158;DHT22;12316;50.904;4.200;2023-03-01T09:26:02;2.80;99.90
24158;DHT22;12316;50.904;4.200;2023-03-01T09:28:28;3.00;99.90
24158;DHT22;12316;50.904;4.200;2023-03-01T09:30:58;3.10;99.90
24158;DHT22;12316;50.904;4.200;2023-03-01T09:33:24;3.20;99.90
24158;DHT22;12316;50.904;4.200;2023-03-01T09:35:56;3.20;99.90
24158;DHT22;12316;50.904;4.200;2023-03-01T09:38:24;3.20;99.90
24158;DHT22;12316;50.904;4.200;2023-03-01T09:40:50;3.20;99.90
24158;DHT22;12316;50.904;4.200;2023-03-01T09:45:49;3.20;99.90
24158;DHT22;12316;50.904;4.200;2023-03-01T09:48:21;3.40;99.90
24158;DHT22;12316;50.904;4.200;2023-03-01T09:50:49;3.60;99.90
24158;DHT22;12316;50.904;4.200;2023-03-01T09:53:20;3.70;99.90
24158;DHT22;12316;50.904;4.200;2023-03-01T09:55:54;3.70;99.90
24158;DHT22;12316;50.904;4.200;2023-03-01T10:00:59;3.90;99.90
24158;DHT22;12316;50.904;4.200;2023-03-01T10:03:39;3.90;99.90
24158;DHT22;12316;50.904;4.200;2023-03-01T10:09:00;4.00;99.90
24158;DHT22;12316;50.904;4.200;2023-03-01T10:11:41;4.00;99.90
24158;DHT22;12316;50.904;4.200;2023-03-01T10:14:23;4.00;99.90
24158;DHT22;12316;50.904;4.200;2023-03-01T10:16:58;4.10;99.90
24158;DHT22;12316;50.904;4.200;2023-03-01T10:19:31;4.30;99.90
24158;DHT22;12316;50.904;4.200;2023-03-01T10:22:03;4.40;99.90
24158;DHT22;12316;50.904;4.200;2023-03-01T10:24:31;4.40;99.90
24158;DHT22;12316;50.904;4.200;2023-03-01T10:27:11;4.40;99.90
24158;DHT22;12316;50.904;4.200;2023-03-01T10:29:50;4.60;99.90
24158;DHT22;12316;50.904;4.200;2023-03-01T10:32:20;4.80;99.90
24158;DHT22;12316;50.904;4.200;2023-03-01T10:34:47;4.90;99.90
24158;DHT22;12316;50.904;4.200;2023-03-01T10:37:15;5.00;99.90
24158;DHT22;12316;50.904;4.200;2023-03-01T10:42:32;4.80;99.90
24158;DHT22;12316;50.904;4.200;2023-03-01T10:48:23;4.70;99.90
24158;DHT22;12316;50.904;4.200;2023-03-01T10:56:14;4.60;99.90
24158;DHT22;12316;50.904;4.200;2023-03-01T10:58:56;4.70;99.90
24158;DHT22;12316;50.904;4.200;2023-03-01T11:06:35;4.90;99.90
24158;DHT22;12316;50.904;4.200;2023-03-01T11:09:21;5.10;99.90
24158;DHT22;12316;50.904;4.200;2023-03-01T11:11:56;5.20;99.90
24158;DHT22;12316;50.904;4.200;2023-03-01T11:14:24;5.30;99.90
24158;DHT22;12316;50.904;4.200;2023-03-01T11:17:05;5.50;99.90
24158;DHT22;12316;50.904;4.200;2023-03-01T11:19:32;5.50;99.30
24158;DHT22;12316;50.904;4.200;2023-03-01T11:22:17;5.60;98.90
24158;DHT22;12316;50.904;4.200;2023-03-01T11:24:49;5.60;98.60
24158;DHT22;12316;50.904;4.200;2023-03-01T11:27:23;5.60;98.40
24158;DHT22;12316;50.904;4.200;2023-03-01T11:32:28;5.50;98.60
24158;DHT22;12316;50.904;4.200;2023-03-01T11:35:04;5.50;98.50
24158;DHT22;12316;50.904;4.200;2023-03-01T11:37:40;5.60;98.90
24158;DHT22;12316;50.904;4.200;2023-03-01T11:40:25;5.60;98.60
24158;DHT22;12316;50.904;4.200;2023-03-01T11:43:03;5.60;99.20
24158;DHT22;12316;50.904;4.200;2023-03-01T11:51:04;6.10;97.50
24158;DHT22;12316;50.904;4.200;2023-03-01T11:53:48;6.40;97.70
24158;DHT22;12316;50.904;4.200;2023-03-01T11:56:55;6.60;96.60
24158;DHT22;12316;50.904;4.200;2023-03-01T12:09:58;6.30;96.70
24158;DHT22;12316;50.904;4.200;2023-03-01T12:21:06;6.30;97.70
24158;DHT22;12316;50.904;4.200;2023-03-01T12:31:47;6.60;97.00
24158;DHT22;12316;50.904;4.200;2023-03-01T12:51:09;7.20;94.90
24158;DHT22;12316;50.904;4.200;2023-03-01T12:53:42;7.50;95.20
24158;DHT22;12316;50.904;4.200;2023-03-01T12:56:12;7.20;95.40
24158;DHT22;12316;50.904;4.200;2023-03-01T12:58:46;7.00;95.50
24158;DHT22;12316;50.904;4.200;2023-03-01T13:07:02;7.20;95.20
24158;DHT22;12316;50.904;4.200;2023-03-01T13:12:01;7.40;95.30
24158;DHT22;12316;50.904;4.200;2023-03-01T13:16:58;7.30;95.00
24158;DHT22;12316;50.904;4.200;2023-03-01T13:19:25;7.30;94.80
24158;DHT22;12316;50.904;4.200;2023-03-01T13:21:54;7.20;95.10
24158;DHT22;12316;50.904;4.200;2023-03-01T13:24:38;7.30;95.40
24158;DHT22;12316;50.904;4.200;2023-03-01T13:29:57;7.30;94.80
24158;DHT22;12316;50.904;4.200;2023-03-01T13:32:35;7.40;94.90
24158;DHT22;12316;50.904;4.200;2023-03-01T13:37:41;7.60;94.40
24158;DHT22;12316;50.904;4.200;2023-03-01T13:42:45;7.70;93.70
24158;DHT22;12316;50.904;4.200;2023-03-01T13:45:21;7.70;93.80
24158;DHT22;12316;50.904;4.200;2023-03-01T13:47:52;7.80;93.60
24158;DHT22;12316;50.904;4.200;2023-03-01T13:50:32;7.80;93.50
24158;DHT22;12316;50.904;4.200;2023-03-01T13:53:04;7.70;93.90
24158;DHT22;12316;50.904;4.200;2023-03-01T13:55:37;7.60;93.50
24158;DHT22;12316;50.904;4.200;2023-03-01T13:58:43;7.70;93.40
24158;DHT22;12316;50.904;4.200;2023-03-01T14:01:04;7.80;93.20
24158;DHT22;12316;50.904;4.200;2023-03-01T14:03:32;7.90;92.90
24158;DHT22;12316;50.904;4.200;2023-03-01T14:06:13;7.90;93.10
24158;DHT22;12316;50.904;4.200;2023-03-01T14:08:41;7.90;92.90
24158;DHT22;12316;50.904;4.200;2023-03-01T14:19:14;8.40;92.10
24158;DHT22;12316;50.904;4.200;2023-03-01T14:21:41;8.30;92.30
24158;DHT22;12316;50.904;4.200;2023-03-01T14:24:20;8.10;92.40
24158;DHT22;12316;50.904;4.200;2023-03-01T14:26:46;8.00;92.60
24158;DHT22;12316;50.904;4.200;2023-03-01T14:29:27;8.00;92.60
24158;DHT22;12316;50.904;4.200;2023-03-01T14:31:53;7.90;92.60
24158;DHT22;12316;50.904;4.200;2023-03-01T14:34:23;7.80;92.90
24158;DHT22;12316;50.904;4.200;2023-03-01T14:36:49;8.00;93.10
24158;DHT22;12316;50.904;4.200;2023-03-01T14:39:25;7.90;93.10
24158;DHT22;12316;50.904;4.200;2023-03-01T14:41:52;7.70;93.30
24158;DHT22;12316;50.904;4.200;2023-03-01T14:44:23;7.80;93.30
24158;DHT22;12316;50.904;4.200;2023-03-01T14:46:55;7.80;93.00
24158;DHT22;12316;50.904;4.200;2023-03-01T14:49:25;7.90;92.70
24158;DHT22;12316;50.904;4.200;2023-03-01T14:51:57;8.10;92.80
24158;DHT22;12316;50.904;4.200;2023-03-01T14:54:27;8.00;92.80
24158;DHT22;12316;50.904;4.200;2023-03-01T14:56:58;7.90;92.80
24158;DHT22;12316;50.904;4.200;2023-03-01T14:59:24;7.70;93.20
24158;DHT22;12316;50.904;4.200;2023-03-01T15:01:51;7.80;93.40
24158;DHT22;12316;50.904;4.200;2023-03-01T15:04:20;7.80;93.20
24158;DHT22;12316;50.904;4.200;2023-03-01T15:06:49;7.90;93.10
24158;DHT22;12316;50.904;4.200;2023-03-01T15:09:16;8.20;92.70
24158;DHT22;12316;50.904;4.200;2023-03-01T15:11:43;8.20;91.50
24158;DHT22;12316;50.904;4.200;2023-03-01T15:14:29;8.40;91.80
24158;DHT22;12316;50.904;4.200;2023-03-01T15:17:04;8.20;91.90
24158;DHT22;12316;50.904;4.200;2023-03-01T15:19:30;8.00;92.50
24158;DHT22;12316;50.904;4.200;2023-03-01T15:21:55;7.90;92.60
24158;DHT22;12316;50.904;4.200;2023-03-01T15:24:25;8.00;92.80
24158;DHT22;12316;50.904;4.200;2023-03-01T15:26:58;8.20;92.80
24158;DHT22;12316;50.904;4.200;2023-03-01T15:29:29;8.10;92.70
24158;DHT22;12316;50.904;4.200;2023-03-01T15:34:31;8.00;92.90
24158;DHT22;12316;50.904;4.200;2023-03-01T15:36:59;8.00;93.30
24158;DHT22;12316;50.904;4.200;2023-03-01T15:39:37;8.00;93.40
24158;DHT22;12316;50.904;4.200;2023-03-01T15:44:39;8.10;93.30
24158;DHT22;12316;50.904;4.200;2023-03-01T15:47:49;8.10;93.30
24158;DHT22;12316;50.904;4.200;2023-03-01T15:50:27;7.90;93.50
24158;DHT22;12316;50.904;4.200;2023-03-01T15:52:54;7.70;93.60
24158;DHT22;12316;50.904;4.200;2023-03-01T15:55:25;7.80;93.90
24158;DHT22;12316;50.904;4.200;2023-03-01T16:00:32;7.70;94.00
24158;DHT22;12316;50.904;4.200;2023-03-01T16:02:58;7.80;94.00
24158;DHT22;12316;50.904;4.200;2023-03-01T16:05:25;7.90;94.10
24158;DHT22;12316;50.904;4.200;2023-03-01T16:07:51;7.80;94.20
24158;DHT22;12316;50.904;4.200;2023-03-01T16:10:18;7.70;94.20
24158;DHT22;12316;50.904;4.200;2023-03-01T16:12:44;7.80;93.90
24158;DHT22;12316;50.904;4.200;2023-03-01T16:15:25;7.70;93.80
24158;DHT22;12316;50.904;4.200;2023-03-01T16:17:51;7.70;93.90
24158;DHT22;12316;50.904;4.200;2023-03-01T16:20:18;7.70;94.00
24158;DHT22;12316;50.904;4.200;2023-03-01T16:22:44;7.70;94.30
24158;DHT22;12316;50.904;4.200;2023-03-01T16:25:12;7.70;94.20
24158;DHT22;12316;50.904;4.200;2023-03-01T16:27:38;7.50;94.10
24158;DHT22;12316;50.904;4.200;2023-03-01T16:30:07;7.30;94.20
24158;DHT22;12316;50.904;4.200;2023-03-01T16:32:35;7.20;94.70
24158;DHT22;12316;50.904;4.200;2023-03-01T16:35:02;7.20;94.50
24158;DHT22;12316;50.904;4.200;2023-03-01T16:37:32;7.30;94.60
24158;DHT22;12316;50.904;4.200;2023-03-01T16:39:58;7.20;94.60
24158;DHT22;12316;50.904;4.200;2023-03-01T16:42:24;7.20;94.50
24158;DHT22;12316;50.904;4.200;2023-03-01T16:44:55;7.10;94.60
24158;DHT22;12316;50.904;4.200;2023-03-01T16:47:21;7.10;94.50
24158;DHT22;12316;50.904;4.200;2023-03-01T16:49:46;7.10;94.80
24158;DHT22;12316;50.904;4.200;2023-03-01T16:52:12;7.10;94.90
24158;DHT22;12316;50.904;4.200;2023-03-01T16:54:37;7.20;94.70
24158;DHT22;12316;50.904;4.200;2023-03-01T16:57:03;7.20;94.80
24158;DHT22;12316;50.904;4.200;2023-03-01T16:59:30;7.20;94.50
24158;DHT22;12316;50.904;4.200;2023-03-01T17:01:55;7.20;94.40
24158;DHT22;12316;50.904;4.200;2023-03-01T17:04:21;7.20;94.20
24158;DHT22;12316;50.904;4.200;2023-03-01T17:06:46;7.20;94.00
24158;DHT22;12316;50.904;4.200;2023-03-01T17:09:14;7.00;94.20
24158;DHT22;12316;50.904;4.200;2023-03-01T17:11:40;6.80;94.50
24158;DHT22;12316;50.904;4.200;2023-03-01T17:14:07;6.70;94.80
24158;DHT22;12316;50.904;4.200;2023-03-01T17:16:32;6.70;95.00
24158;DHT22;12316;50.904;4.200;2023-03-01T17:18:58;6.80;94.90
24158;DHT22;12316;50.904;4.200;2023-03-01T17:21:23;6.80;94.80
24158;DHT22;12316;50.904;4.200;2023-03-01T17:23:49;6.70;94.90
24158;DHT22;12316;50.904;4.200;2023-03-01T17:26:16;6.60;95.10
24158;DHT22;12316;50.904;4.200;2023-03-01T17:28:42;6.60;95.20
24158;DHT22;12316;50.904;4.200;2023-03-01T17:31:09;6.50;95.10
24158;DHT22;12316;50.904;4.200;2023-03-01T17:33:35;6.50;95.30
24158;DHT22;12316;50.904;4.200;2023-03-01T17:36:02;6.40;95.40
24158;DHT22;12316;50.904;4.200;2023-03-01T17:38:27;6.30;95.60
24158;DHT22;12316;50.904;4.200;2023-03-01T17:40:53;6.30;95.50
24158;DHT22;12316;50.904;4.200;2023-03-01T17:43:19;6.30;95.70
24158;DHT22;12316;50.904;4.200;2023-03-01T17:45:45;6.10;95.70
24158;DHT22;12316;50.904;4.200;2023-03-01T17:48:14;6.20;95.80
24158;DHT22;12316;50.904;4.200;2023-03-01T17:50:40;6.20;95.70
24158;DHT22;12316;50.904;4.200;2023-03-01T17:53:07;6.20;95.80
24158;DHT22;12316;50.904;4.200;2023-03-01T17:55:38;6.10;95.80
24158;DHT22;12316;50.904;4.200;2023-03-01T17:58:05;6.00;95.80
24158;DHT22;12316;50.904;4.200;2023-03-01T18:00:32;5.90;95.90